45.5°F
Current conditions from King Hill
Updated every 5 minutes
 
  Friday October 31, 2014

Station Historical Data
Daily Summary for April 18, 2012 Units:  Both    English   Metric
« Previous Day
Next Day »
Daily Weekly Monthly Yearly Custom
  High: Low: Average:
Temperature: 54.1 °F /  12.3 °C 30.2 °F /  -1 °C 41.8 °F /  5.4 °C
Dew Point: 31.7 °F /  -0.2 °C 22.1 °F /  -5.5 °C 26.3 °F /  -3.2 °C
Humidity: 75% 37% 55%
Wind Speed: 7.0mph /  11.3km/h - 2.2mph /  3.5km/h
Wind Gust: 14.0mph /  22.5km/h - -
Wind- - SW
Pressure: 30.30 in /  1026 hPa 30.07 in /  1018.2 hPa -
Precipitation: 0.00 in /  0 mm    
Historical Graphs
 
 
Tabular Data for April 18, 2012
Time Temperature Dew Point Pressure Wind Wind Speed Wind Gust Humidity Daily Rainfall
00:00 40.5 °F /  4.7 °C 24.3 °F /  -4.3 °C 30.21in /  1022.9hPa NNW 4.0mph /  6.4km/h 12.0mph /  19.3km/h 52% 0.02in /  0.5mm
00:04 40.4 °F /  4.7 °C 24.6 °F /  -4.1 °C 30.21in /  1022.9hPa NW 7.0mph /  11.3km/h 12.0mph /  19.3km/h 53% 0.00in /  0mm
00:09 40.4 °F /  4.7 °C 24.6 °F /  -4.1 °C 30.21in /  1022.9hPa NW 3.0mph /  4.8km/h 11.0mph /  17.7km/h 53% 0.00in /  0mm
00:15 40.3 °F /  4.6 °C 24.5 °F /  -4.2 °C 30.22in /  1023.2hPa NNW 1.0mph /  1.6km/h 11.0mph /  17.7km/h 53% 0.00in /  0mm
00:19 40.3 °F /  4.6 °C 25.0 °F /  -3.9 °C 30.21in /  1022.9hPa NNW 2.0mph /  3.2km/h 9.0mph /  14.5km/h 54% 0.00in /  0mm
00:25 40.2 °F /  4.6 °C 25.3 °F /  -3.7 °C 30.21in /  1022.9hPa Calm   9.0mph /  14.5km/h 55% 0.00in /  0mm
00:34 39.9 °F /  4.4 °C 24.6 °F /  -4.1 °C 30.21in /  1022.9hPa NW 1.0mph /  1.6km/h 7.0mph /  11.3km/h 54% 0.00in /  0mm
00:39 39.7 °F /  4.3 °C 24.4 °F /  -4.2 °C 30.21in /  1022.9hPa Calm   7.0mph /  11.3km/h 54% 0.00in /  0mm
00:45 39.5 °F /  4.2 °C 24.2 °F /  -4.3 °C 30.21in /  1022.9hPa WNW 2.0mph /  3.2km/h 7.0mph /  11.3km/h 54% 0.00in /  0mm
00:55 39.1 °F /  3.9 °C 23.9 °F /  -4.5 °C 30.22in /  1023.2hPa Calm   7.0mph /  11.3km/h 54% 0.00in /  0mm
01:05 38.6 °F /  3.7 °C 23.4 °F /  -4.8 °C 30.22in /  1023.2hPa NW 3.0mph /  4.8km/h 13.0mph /  20.9km/h 54% 0.00in /  0mm
01:09 38.3 °F /  3.5 °C 23.5 °F /  -4.7 °C 30.21in /  1022.9hPa NW 3.0mph /  4.8km/h 13.0mph /  20.9km/h 55% 0.00in /  0mm
01:15 38.0 °F /  3.3 °C 23.3 °F /  -4.8 °C 30.21in /  1022.9hPa NW 4.0mph /  6.4km/h 9.0mph /  14.5km/h 55% 0.00in /  0mm
01:19 37.7 °F /  3.2 °C 23.4 °F /  -4.8 °C 30.22in /  1023.2hPa NNW 1.0mph /  1.6km/h 9.0mph /  14.5km/h 56% 0.00in /  0mm
01:24 37.6 °F /  3.1 °C 23.7 °F /  -4.6 °C 30.22in /  1023.2hPa Calm   9.0mph /  14.5km/h 57% 0.00in /  0mm
01:29 37.5 °F /  3.1 °C 23.7 °F /  -4.6 °C 30.22in /  1023.2hPa NW 3.0mph /  4.8km/h 9.0mph /  14.5km/h 57% 0.00in /  0mm
01:34 37.5 °F /  3.1 °C 23.7 °F /  -4.6 °C 30.22in /  1023.2hPa NNW 1.0mph /  1.6km/h 8.0mph /  12.9km/h 57% 0.00in /  0mm
01:39 37.4 °F /  3 °C 24.0 °F /  -4.4 °C 30.22in /  1023.2hPa NW 2.0mph /  3.2km/h 8.0mph /  12.9km/h 58% 0.00in /  0mm
01:44 37.2 °F /  2.9 °C 23.8 °F /  -4.6 °C 30.22in /  1023.2hPa NW 7.0mph /  11.3km/h 10.0mph /  16.1km/h 58% 0.00in /  0mm
01:49 37.0 °F /  2.8 °C 23.6 °F /  -4.7 °C 30.22in /  1023.2hPa NNW 4.0mph /  6.4km/h 10.0mph /  16.1km/h 58% 0.00in /  0mm
01:54 36.7 °F /  2.6 °C 23.7 °F /  -4.6 °C 30.22in /  1023.2hPa NW 2.0mph /  3.2km/h 9.0mph /  14.5km/h 59% 0.00in /  0mm
01:59 36.4 °F /  2.4 °C 23.8 °F /  -4.6 °C 30.22in /  1023.2hPa Calm   7.0mph /  11.3km/h 60% 0.00in /  0mm
02:04 36.1 °F /  2.3 °C 23.6 °F /  -4.7 °C 30.22in /  1023.2hPa NW 2.0mph /  3.2km/h 7.0mph /  11.3km/h 60% 0.00in /  0mm
02:09 35.9 °F /  2.2 °C 23.8 °F /  -4.6 °C 30.22in /  1023.2hPa NW 2.0mph /  3.2km/h 7.0mph /  11.3km/h 61% 0.00in /  0mm
02:14 35.8 °F /  2.1 °C 23.7 °F /  -4.6 °C 30.23in /  1023.6hPa NW 1.0mph /  1.6km/h 8.0mph /  12.9km/h 61% 0.00in /  0mm
02:20 35.5 °F /  1.9 °C 23.8 °F /  -4.6 °C 30.22in /  1023.2hPa NW 1.0mph /  1.6km/h 8.0mph /  12.9km/h 62% 0.00in /  0mm
02:24 35.2 °F /  1.8 °C 23.5 °F /  -4.7 °C 30.22in /  1023.2hPa NW 2.0mph /  3.2km/h 8.0mph /  12.9km/h 62% 0.00in /  0mm
02:30 35.1 °F /  1.7 °C 23.8 °F /  -4.6 °C 30.22in /  1023.2hPa Calm   8.0mph /  12.9km/h 63% 0.00in /  0mm
02:34 35.1 °F /  1.7 °C 23.8 °F /  -4.6 °C 30.22in /  1023.2hPa Calm   7.0mph /  11.3km/h 63% 0.00in /  0mm
02:40 35.0 °F /  1.7 °C 23.7 °F /  -4.6 °C 30.22in /  1023.2hPa NNW 1.0mph /  1.6km/h 7.0mph /  11.3km/h 63% 0.00in /  0mm
02:49 34.4 °F /  1.3 °C 23.9 °F /  -4.5 °C 30.23in /  1023.6hPa Calm   6.0mph /  9.7km/h 65% 0.00in /  0mm
02:54 34.4 °F /  1.3 °C 23.5 °F /  -4.7 °C 30.22in /  1023.2hPa NW 2.0mph /  3.2km/h 8.0mph /  12.9km/h 64% 0.00in /  0mm
02:59 34.4 °F /  1.3 °C 23.9 °F /  -4.5 °C 30.23in /  1023.6hPa Calm   8.0mph /  12.9km/h 65% 0.00in /  0mm
03:04 34.2 °F /  1.2 °C 23.7 °F /  -4.6 °C 30.23in /  1023.6hPa NW 1.0mph /  1.6km/h 4.0mph /  6.4km/h 65% 0.00in /  0mm
03:09 34.1 °F /  1.2 °C 23.9 °F /  -4.5 °C 30.22in /  1023.2hPa Calm   6.0mph /  9.7km/h 66% 0.00in /  0mm
03:14 34.2 °F /  1.2 °C 24.0 °F /  -4.4 °C 30.23in /  1023.6hPa NW 1.0mph /  1.6km/h 7.0mph /  11.3km/h 66% 0.00in /  0mm
03:19 34.1 °F /  1.2 °C 23.9 °F /  -4.5 °C 30.23in /  1023.6hPa NW 4.0mph /  6.4km/h 10.0mph /  16.1km/h 66% 0.00in /  0mm
03:24 34.1 °F /  1.2 °C 24.3 °F /  -4.3 °C 30.23in /  1023.6hPa WNW 3.0mph /  4.8km/h 10.0mph /  16.1km/h 67% 0.00in /  0mm
03:29 34.0 °F /  1.1 °C 24.2 °F /  -4.3 °C 30.23in /  1023.6hPa NW 2.0mph /  3.2km/h 7.0mph /  11.3km/h 67% 0.00in /  0mm
03:35 34.0 °F /  1.1 °C 24.2 °F /  -4.3 °C 30.23in /  1023.6hPa NNW 3.0mph /  4.8km/h 8.0mph /  12.9km/h 67% 0.00in /  0mm
03:45 33.8 °F /  1 °C 24.0 °F /  -4.4 °C 30.23in /  1023.6hPa NW 3.0mph /  4.8km/h 8.0mph /  12.9km/h 67% 0.00in /  0mm
03:59 33.6 °F /  0.9 °C 23.8 °F /  -4.6 °C 30.24in /  1023.9hPa NW 4.0mph /  6.4km/h 12.0mph /  19.3km/h 67% 0.00in /  0mm
04:04 33.5 °F /  0.8 °C 23.7 °F /  -4.6 °C 30.24in /  1023.9hPa NW 4.0mph /  6.4km/h 10.0mph /  16.1km/h 67% 0.00in /  0mm
04:09 33.3 °F /  0.7 °C 23.9 °F /  -4.5 °C 30.24in /  1023.9hPa NW 3.0mph /  4.8km/h 10.0mph /  16.1km/h 68% 0.00in /  0mm
04:14 33.4 °F /  0.8 °C 24.0 °F /  -4.4 °C 30.24in /  1023.9hPa NW 2.0mph /  3.2km/h 9.0mph /  14.5km/h 68% 0.00in /  0mm
04:20 33.1 °F /  0.6 °C 23.7 °F /  -4.6 °C 30.24in /  1023.9hPa Calm   9.0mph /  14.5km/h 68% 0.00in /  0mm
04:24 32.7 °F /  0.4 °C 23.7 °F /  -4.6 °C 30.24in /  1023.9hPa Calm   6.0mph /  9.7km/h 69% 0.00in /  0mm
04:29 32.5 °F /  0.3 °C 23.5 °F /  -4.7 °C 30.24in /  1023.9hPa Calm   6.0mph /  9.7km/h 69% 0.00in /  0mm
04:34 32.4 °F /  0.2 °C 23.7 °F /  -4.6 °C 30.24in /  1023.9hPa NW 2.0mph /  3.2km/h 7.0mph /  11.3km/h 70% 0.00in /  0mm
04:39 32.6 °F /  0.3 °C 23.9 °F /  -4.5 °C 30.24in /  1023.9hPa WNW 1.0mph /  1.6km/h 7.0mph /  11.3km/h 70% 0.00in /  0mm
04:44 32.6 °F /  0.3 °C 23.9 °F /  -4.5 °C 30.24in /  1023.9hPa NNW 2.0mph /  3.2km/h 10.0mph /  16.1km/h 70% 0.00in /  0mm
04:49 32.5 °F /  0.3 °C 23.8 °F /  -4.6 °C 30.24in /  1023.9hPa Calm   10.0mph /  16.1km/h 70% 0.00in /  0mm
04:54 32.4 °F /  0.2 °C 23.7 °F /  -4.6 °C 30.25in /  1024.3hPa NW 1.0mph /  1.6km/h 9.0mph /  14.5km/h 70% 0.00in /  0mm
04:59 32.3 °F /  0.2 °C 23.6 °F /  -4.7 °C 30.25in /  1024.3hPa NNW 2.0mph /  3.2km/h 9.0mph /  14.5km/h 70% 0.00in /  0mm
05:04 32.3 °F /  0.2 °C 23.6 °F /  -4.7 °C 30.25in /  1024.3hPa Calm   5.0mph /  8km/h 70% 0.00in /  0mm
05:09 32.2 °F /  0.1 °C 23.5 °F /  -4.7 °C 30.25in /  1024.3hPa Calm   3.0mph /  4.8km/h 70% 0.00in /  0mm
05:14 32.0 °F /  0 °C 23.3 °F /  -4.8 °C 30.24in /  1023.9hPa Calm   3.0mph /  4.8km/h 70% 0.00in /  0mm
05:19 31.7 °F /  -0.2 °C 23.4 °F /  -4.8 °C 30.25in /  1024.3hPa Calm     71% 0.00in /  0mm
05:24 31.5 °F /  -0.3 °C 23.2 °F /  -4.9 °C 30.24in /  1023.9hPa Calm   2.0mph /  3.2km/h 71% 0.00in /  0mm
05:29 31.2 °F /  -0.4 °C 23.2 °F /  -4.9 °C 30.24in /  1023.9hPa Calm   2.0mph /  3.2km/h 72% 0.00in /  0mm
05:35 31.0 °F /  -0.6 °C 23.4 °F /  -4.8 °C 30.25in /  1024.3hPa Calm     73% 0.00in /  0mm
05:44 30.7 °F /  -0.7 °C 23.1 °F /  -4.9 °C 30.25in /  1024.3hPa Calm     73% 0.00in /  0mm
05:49 30.4 °F /  -0.9 °C 23.1 °F /  -4.9 °C 30.25in /  1024.3hPa Calm     74% 0.00in /  0mm
05:55 30.3 °F /  -0.9 °C 23.3 °F /  -4.8 °C 30.25in /  1024.3hPa NW 1.0mph /  1.6km/h 5.0mph /  8km/h 75% 0.00in /  0mm
06:00 30.3 °F /  -0.9 °C 23.3 °F /  -4.8 °C 30.25in /  1024.3hPa Calm   5.0mph /  8km/h 75% 0.00in /  0mm
06:09 30.3 °F /  -0.9 °C 23.3 °F /  -4.8 °C 30.25in /  1024.3hPa Calm   4.0mph /  6.4km/h 75% 0.00in /  0mm
06:14 30.2 °F /  -1 °C 23.2 °F /  -4.9 °C 30.25in /  1024.3hPa Calm   4.0mph /  6.4km/h 75% 0.00in /  0mm
06:20 30.2 °F /  -1 °C 23.2 °F /  -4.9 °C 30.26in /  1024.6hPa Calm   1.0mph /  1.6km/h 75% 0.00in /  0mm
06:29 30.2 °F /  -1 °C 23.2 °F /  -4.9 °C 30.27in /  1024.9hPa Calm     75% 0.00in /  0mm
06:35 30.2 °F /  -1 °C 23.2 °F /  -4.9 °C 30.27in /  1024.9hPa Calm   5.0mph /  8km/h 75% 0.00in /  0mm
06:45 30.7 °F /  -0.7 °C 23.4 °F /  -4.8 °C 30.27in /  1024.9hPa Calm   7.0mph /  11.3km/h 74% 0.00in /  0mm
06:50 30.9 °F /  -0.6 °C 23.3 °F /  -4.8 °C 30.28in /  1025.3hPa NNE 1.0mph /  1.6km/h 5.0mph /  8km/h 73% 0.00in /  0mm
06:59 31.1 °F /  -0.5 °C 23.1 °F /  -4.9 °C 30.28in /  1025.3hPa Calm   4.0mph /  6.4km/h 72% 0.00in /  0mm
07:04 31.2 °F /  -0.4 °C 22.9 °F /  -5.1 °C 30.29in /  1025.6hPa NNW 1.0mph /  1.6km/h 5.0mph /  8km/h 71% 0.00in /  0mm
07:09 31.3 °F /  -0.4 °C 22.7 °F /  -5.2 °C 30.29in /  1025.6hPa NNE 1.0mph /  1.6km/h 8.0mph /  12.9km/h 70% 0.00in /  0mm
07:15 31.4 °F /  -0.3 °C 22.4 °F /  -5.3 °C 30.29in /  1025.6hPa NNE 1.0mph /  1.6km/h 8.0mph /  12.9km/h 69% 0.00in /  0mm
07:24 31.8 °F /  -0.1 °C 22.1 °F /  -5.5 °C 30.29in /  1025.6hPa Calm   5.0mph /  8km/h 67% 0.00in /  0mm
07:29 32.5 °F /  0.3 °C 22.4 °F /  -5.3 °C 30.30in /  1026hPa Calm   6.0mph /  9.7km/h 66% 0.00in /  0mm
07:34 33.3 °F /  0.7 °C 22.8 °F /  -5.1 °C 30.29in /  1025.6hPa Calm   7.0mph /  11.3km/h 65% 0.00in /  0mm
07:40 34.1 °F /  1.2 °C 23.2 °F /  -4.9 °C 30.29in /  1025.6hPa North 1.0mph /  1.6km/h 7.0mph /  11.3km/h 64% 0.00in /  0mm
07:49 35.0 °F /  1.7 °C 23.7 °F /  -4.6 °C 30.29in /  1025.6hPa NNE 1.0mph /  1.6km/h 5.0mph /  8km/h 63% 0.00in /  0mm
07:54 35.3 °F /  1.8 °C 23.2 °F /  -4.9 °C 30.29in /  1025.6hPa Calm   6.0mph /  9.7km/h 61% 0.00in /  0mm
07:59 35.7 °F /  2.1 °C 22.4 °F /  -5.3 °C 30.29in /  1025.6hPa NNW 1.0mph /  1.6km/h 6.0mph /  9.7km/h 58% 0.00in /  0mm
08:04 35.7 °F /  2.1 °C 22.8 °F /  -5.1 °C 30.30in /  1026hPa NNE 2.0mph /  3.2km/h 7.0mph /  11.3km/h 59% 0.00in /  0mm
08:09 35.9 °F /  2.2 °C 23.0 °F /  -5 °C 30.30in /  1026hPa Calm   8.0mph /  12.9km/h 59% 0.00in /  0mm
08:14 36.5 °F /  2.5 °C 22.7 °F /  -5.2 °C 30.29in /  1025.6hPa NE 1.0mph /  1.6km/h 8.0mph /  12.9km/h 57% 0.00in /  0mm
08:19 36.9 °F /  2.7 °C 22.7 °F /  -5.2 °C 30.29in /  1025.6hPa NE 2.0mph /  3.2km/h 9.0mph /  14.5km/h 56% 0.00in /  0mm
08:24 36.8 °F /  2.7 °C 23.0 °F /  -5 °C 30.30in /  1026hPa North 3.0mph /  4.8km/h 9.0mph /  14.5km/h 57% 0.00in /  0mm
08:29 37.0 °F /  2.8 °C 23.2 °F /  -4.9 °C 30.30in /  1026hPa North 1.0mph /  1.6km/h 8.0mph /  12.9km/h 57% 0.00in /  0mm
08:34 37.3 °F /  2.9 °C 22.6 °F /  -5.2 °C 30.30in /  1026hPa NNE 1.0mph /  1.6km/h 6.0mph /  9.7km/h 55% 0.00in /  0mm
08:39 37.7 °F /  3.2 °C 23.0 °F /  -5 °C 30.30in /  1026hPa North 1.0mph /  1.6km/h 6.0mph /  9.7km/h 55% 0.00in /  0mm
08:44 37.6 °F /  3.1 °C 22.5 °F /  -5.3 °C 30.30in /  1026hPa NNW 1.0mph /  1.6km/h 9.0mph /  14.5km/h 54% 0.00in /  0mm
08:49 37.9 °F /  3.3 °C 24.0 °F /  -4.4 °C 30.30in /  1026hPa North 2.0mph /  3.2km/h 9.0mph /  14.5km/h 57% 0.00in /  0mm
08:54 38.3 °F /  3.5 °C 23.5 °F /  -4.7 °C 30.30in /  1026hPa NNW 1.0mph /  1.6km/h 6.0mph /  9.7km/h 55% 0.00in /  0mm
08:59 38.5 °F /  3.6 °C 23.3 °F /  -4.8 °C 30.30in /  1026hPa North 1.0mph /  1.6km/h 7.0mph /  11.3km/h 54% 0.00in /  0mm
09:04 38.3 °F /  3.5 °C 22.2 °F /  -5.4 °C 30.30in /  1026hPa North 1.0mph /  1.6km/h 7.0mph /  11.3km/h 52% 0.00in /  0mm
09:09 38.4 °F /  3.6 °C 23.2 °F /  -4.9 °C 30.29in /  1025.6hPa NNE 2.0mph /  3.2km/h 7.0mph /  11.3km/h 54% 0.00in /  0mm
09:14 38.8 °F /  3.8 °C 23.1 °F /  -4.9 °C 30.29in /  1025.6hPa NNE 1.0mph /  1.6km/h 7.0mph /  11.3km/h 53% 0.00in /  0mm
09:19 39.2 °F /  4 °C 24.8 °F /  -4 °C 30.30in /  1026hPa North 1.0mph /  1.6km/h 6.0mph /  9.7km/h 56% 0.00in /  0mm
09:24 39.2 °F /  4 °C 23.5 °F /  -4.7 °C 30.30in /  1026hPa Calm   5.0mph /  8km/h 53% 0.00in /  0mm
09:29 39.6 °F /  4.2 °C 23.9 °F /  -4.5 °C 30.29in /  1025.6hPa Calm   5.0mph /  8km/h 53% 0.00in /  0mm
09:34 40.0 °F /  4.4 °C 24.2 °F /  -4.3 °C 30.29in /  1025.6hPa North 1.0mph /  1.6km/h 6.0mph /  9.7km/h 53% 0.00in /  0mm
09:39 40.4 °F /  4.7 °C 24.2 °F /  -4.3 °C 30.30in /  1026hPa NE 2.0mph /  3.2km/h 8.0mph /  12.9km/h 52% 0.00in /  0mm
09:45 40.7 °F /  4.8 °C 24.0 °F /  -4.4 °C 30.30in /  1026hPa North 3.0mph /  4.8km/h 8.0mph /  12.9km/h 51% 0.00in /  0mm
09:54 40.6 °F /  4.8 °C 23.9 °F /  -4.5 °C 30.29in /  1025.6hPa Calm   7.0mph /  11.3km/h 51% 0.00in /  0mm
09:59 41.2 °F /  5.1 °C 24.4 °F /  -4.2 °C 30.29in /  1025.6hPa North 2.0mph /  3.2km/h 7.0mph /  11.3km/h 51% 0.00in /  0mm
10:04 41.9 °F /  5.5 °C 24.6 °F /  -4.1 °C 30.29in /  1025.6hPa North 3.0mph /  4.8km/h 9.0mph /  14.5km/h 50% 0.00in /  0mm
10:09 42.0 °F /  5.6 °C 24.2 °F /  -4.3 °C 30.30in /  1026hPa North 2.0mph /  3.2km/h 9.0mph /  14.5km/h 49% 0.00in /  0mm
10:14 41.9 °F /  5.5 °C 24.1 °F /  -4.4 °C 30.29in /  1025.6hPa ENE 1.0mph /  1.6km/h 7.0mph /  11.3km/h 49% 0.00in /  0mm
10:19 42.3 °F /  5.7 °C 24.0 °F /  -4.4 °C 30.29in /  1025.6hPa NW 1.0mph /  1.6km/h 6.0mph /  9.7km/h 48% 0.00in /  0mm
10:24 42.3 °F /  5.7 °C 24.5 °F /  -4.2 °C 30.29in /  1025.6hPa NNW 2.0mph /  3.2km/h 9.0mph /  14.5km/h 49% 0.00in /  0mm
10:29 42.1 °F /  5.6 °C 24.3 °F /  -4.3 °C 30.28in /  1025.3hPa NW 5.0mph /  8km/h 11.0mph /  17.7km/h 49% 0.00in /  0mm
10:34 42.2 °F /  5.7 °C 23.9 °F /  -4.5 °C 30.28in /  1025.3hPa NW 4.0mph /  6.4km/h 11.0mph /  17.7km/h 48% 0.00in /  0mm
10:39 42.0 °F /  5.6 °C 24.7 °F /  -4.1 °C 30.28in /  1025.3hPa North 2.0mph /  3.2km/h 11.0mph /  17.7km/h 50% 0.00in /  0mm
10:44 42.5 °F /  5.8 °C 24.2 °F /  -4.3 °C 30.28in /  1025.3hPa Calm   11.0mph /  17.7km/h 48% 0.00in /  0mm
10:50 42.6 °F /  5.9 °C 24.3 °F /  -4.3 °C 30.28in /  1025.3hPa WNW 5.0mph /  8km/h 9.0mph /  14.5km/h 48% 0.00in /  0mm
11:00 43.4 °F /  6.3 °C 26.0 °F /  -3.3 °C 30.28in /  1025.3hPa NNW 4.0mph /  6.4km/h 10.0mph /  16.1km/h 50% 0.00in /  0mm
11:09 43.5 °F /  6.4 °C 24.6 °F /  -4.1 °C 30.27in /  1024.9hPa North 3.0mph /  4.8km/h 8.0mph /  12.9km/h 47% 0.00in /  0mm
11:14 43.5 °F /  6.4 °C 24.6 °F /  -4.1 °C 30.27in /  1024.9hPa Calm   8.0mph /  12.9km/h 47% 0.00in /  0mm
11:20 43.6 °F /  6.4 °C 24.7 °F /  -4.1 °C 30.27in /  1024.9hPa Calm   6.0mph /  9.7km/h 47% 0.00in /  0mm
11:30 44.0 °F /  6.7 °C 25.6 °F /  -3.6 °C 30.26in /  1024.6hPa NNW 3.0mph /  4.8km/h 9.0mph /  14.5km/h 48% 0.00in /  0mm
11:39 44.5 °F /  6.9 °C 26.0 °F /  -3.3 °C 30.25in /  1024.3hPa WNW 2.0mph /  3.2km/h 9.0mph /  14.5km/h 48% 0.00in /  0mm
11:45 44.2 °F /  6.8 °C 25.8 °F /  -3.4 °C 30.25in /  1024.3hPa NW 2.0mph /  3.2km/h 11.0mph /  17.7km/h 48% 0.00in /  0mm
11:54 45.0 °F /  7.2 °C 26.5 °F /  -3.1 °C 30.25in /  1024.3hPa North 1.0mph /  1.6km/h 8.0mph /  12.9km/h 48% 0.00in /  0mm
11:59 44.4 °F /  6.9 °C 26.4 °F /  -3.1 °C 30.24in /  1023.9hPa Calm   4.0mph /  6.4km/h 49% 0.00in /  0mm
12:04 45.2 °F /  7.3 °C 27.2 °F /  -2.7 °C 30.24in /  1023.9hPa NNW 2.0mph /  3.2km/h 8.0mph /  12.9km/h 49% 0.00in /  0mm
12:09 45.8 °F /  7.7 °C 26.7 °F /  -2.9 °C 30.24in /  1023.9hPa NNW 1.0mph /  1.6km/h 8.0mph /  12.9km/h 47% 0.00in /  0mm
12:14 46.0 °F /  7.8 °C 26.9 °F /  -2.8 °C 30.24in /  1023.9hPa Calm   4.0mph /  6.4km/h 47% 0.00in /  0mm
12:19 45.3 °F /  7.4 °C 26.8 °F /  -2.9 °C 30.24in /  1023.9hPa WNW 3.0mph /  4.8km/h 9.0mph /  14.5km/h 48% 0.00in /  0mm
12:24 46.1 °F /  7.8 °C 27.0 °F /  -2.8 °C 30.24in /  1023.9hPa NW 2.0mph /  3.2km/h 9.0mph /  14.5km/h 47% 0.00in /  0mm
12:29 45.8 °F /  7.7 °C 26.7 °F /  -2.9 °C 30.23in /  1023.6hPa WNW 2.0mph /  3.2km/h 10.0mph /  16.1km/h 47% 0.00in /  0mm
12:34 46.3 °F /  7.9 °C 28.7 °F /  -1.8 °C 30.23in /  1023.6hPa NW 1.0mph /  1.6km/h 10.0mph /  16.1km/h 50% 0.00in /  0mm
12:40 46.7 °F /  8.2 °C 28.6 °F /  -1.9 °C 30.23in /  1023.6hPa Calm   8.0mph /  12.9km/h 49% 0.00in /  0mm
12:49 47.1 °F /  8.4 °C 27.4 °F /  -2.6 °C 30.22in /  1023.2hPa Calm   7.0mph /  11.3km/h 46% 0.00in /  0mm
12:54 47.1 °F /  8.4 °C 27.9 °F /  -2.3 °C 30.22in /  1023.2hPa Calm   6.0mph /  9.7km/h 47% 0.00in /  0mm
12:59 47.3 °F /  8.5 °C 28.1 °F /  -2.2 °C 30.22in /  1023.2hPa Calm   6.0mph /  9.7km/h 47% 0.00in /  0mm
13:04 47.9 °F /  8.8 °C 29.2 °F /  -1.6 °C 30.21in /  1022.9hPa NE 2.0mph /  3.2km/h 8.0mph /  12.9km/h 48% 0.00in /  0mm
13:09 48.2 °F /  9 °C 27.9 °F /  -2.3 °C 30.21in /  1022.9hPa NNE 3.0mph /  4.8km/h 8.0mph /  12.9km/h 45% 0.00in /  0mm
13:14 47.4 °F /  8.6 °C 27.7 °F /  -2.4 °C 30.21in /  1022.9hPa ENE 4.0mph /  6.4km/h 11.0mph /  17.7km/h 46% 0.00in /  0mm
13:19 48.1 °F /  8.9 °C 28.3 °F /  -2.1 °C 30.21in /  1022.9hPa North 3.0mph /  4.8km/h 11.0mph /  17.7km/h 46% 0.00in /  0mm
13:24 48.3 °F /  9.1 °C 29.0 °F /  -1.7 °C 30.20in /  1022.6hPa NW 4.0mph /  6.4km/h 9.0mph /  14.5km/h 47% 0.00in /  0mm
13:29 48.8 °F /  9.3 °C 28.4 °F /  -2 °C 30.20in /  1022.6hPa NW 1.0mph /  1.6km/h 9.0mph /  14.5km/h 45% 0.00in /  0mm
13:35 48.5 °F /  9.2 °C 28.1 °F /  -2.2 °C 30.20in /  1022.6hPa Calm   8.0mph /  12.9km/h 45% 0.00in /  0mm
13:44 49.4 °F /  9.7 °C 30.0 °F /  -1.1 °C 30.20in /  1022.6hPa NE 1.0mph /  1.6km/h 5.0mph /  8km/h 47% 0.00in /  0mm
13:49 49.8 °F /  9.9 °C 29.9 °F /  -1.2 °C 30.20in /  1022.6hPa North 2.0mph /  3.2km/h 8.0mph /  12.9km/h 46% 0.00in /  0mm
13:54 50.4 °F /  10.2 °C 28.7 °F /  -1.8 °C 30.20in /  1022.6hPa North 2.0mph /  3.2km/h 8.0mph /  12.9km/h 43% 0.00in /  0mm
13:59 50.8 °F /  10.4 °C 29.1 °F /  -1.6 °C 30.20in /  1022.6hPa NNW 1.0mph /  1.6km/h 7.0mph /  11.3km/h 43% 0.00in /  0mm
14:04 50.7 °F /  10.4 °C 29.6 °F /  -1.3 °C 30.19in /  1022.2hPa NE 2.0mph /  3.2km/h 7.0mph /  11.3km/h 44% 0.00in /  0mm
14:09 50.8 °F /  10.4 °C 28.5 °F /  -1.9 °C 30.19in /  1022.2hPa Calm   7.0mph /  11.3km/h 42% 0.00in /  0mm
14:14 50.7 °F /  10.4 °C 29.6 °F /  -1.3 °C 30.19in /  1022.2hPa NW 2.0mph /  3.2km/h 7.0mph /  11.3km/h 44% 0.00in /  0mm
14:19 50.6 °F /  10.3 °C 28.9 °F /  -1.7 °C 30.19in /  1022.2hPa NW 4.0mph /  6.4km/h 7.0mph /  11.3km/h 43% 0.00in /  0mm
14:24 50.7 °F /  10.4 °C 29.0 °F /  -1.7 °C 30.19in /  1022.2hPa WNW 1.0mph /  1.6km/h 10.0mph /  16.1km/h 43% 0.00in /  0mm
14:29 50.2 °F /  10.1 °C 29.1 °F /  -1.6 °C 30.19in /  1022.2hPa WNW 3.0mph /  4.8km/h 10.0mph /  16.1km/h 44% 0.00in /  0mm
14:34 49.9 °F /  9.9 °C 28.3 °F /  -2.1 °C 30.18in /  1021.9hPa WNW 4.0mph /  6.4km/h 14.0mph /  22.5km/h 43% 0.00in /  0mm
14:39 49.7 °F /  9.8 °C 29.2 °F /  -1.6 °C 30.18in /  1021.9hPa WNW 6.0mph /  9.7km/h 14.0mph /  22.5km/h 45% 0.00in /  0mm
14:44 50.4 °F /  10.2 °C 29.9 °F /  -1.2 °C 30.18in /  1021.9hPa NNW 2.0mph /  3.2km/h 11.0mph /  17.7km/h 45% 0.00in /  0mm
14:49 50.8 °F /  10.4 °C 29.7 °F /  -1.3 °C 30.18in /  1021.9hPa NW 4.0mph /  6.4km/h 11.0mph /  17.7km/h 44% 0.00in /  0mm
14:54 50.8 °F /  10.4 °C 29.1 °F /  -1.6 °C 30.18in /  1021.9hPa NW 1.0mph /  1.6km/h 10.0mph /  16.1km/h 43% 0.00in /  0mm
14:59 50.7 °F /  10.4 °C 31.7 °F /  -0.2 °C 30.18in /  1021.9hPa Calm   8.0mph /  12.9km/h 48% 0.00in /  0mm
15:04 51.0 °F /  10.6 °C 29.3 °F /  -1.5 °C 30.17in /  1021.6hPa NW 2.0mph /  3.2km/h 8.0mph /  12.9km/h 43% 0.00in /  0mm
15:09 51.3 °F /  10.7 °C 29.6 °F /  -1.3 °C 30.17in /  1021.6hPa NW 5.0mph /  8km/h 11.0mph /  17.7km/h 43% 0.00in /  0mm
15:14 51.2 °F /  10.7 °C 29.5 °F /  -1.4 °C 30.17in /  1021.6hPa NW 4.0mph /  6.4km/h 11.0mph /  17.7km/h 43% 0.00in /  0mm
15:19 51.3 °F /  10.7 °C 30.1 °F /  -1.1 °C 30.17in /  1021.6hPa WNW 5.0mph /  8km/h 9.0mph /  14.5km/h 44% 0.00in /  0mm
15:24 51.5 °F /  10.8 °C 29.2 °F /  -1.6 °C 30.17in /  1021.6hPa NW 4.0mph /  6.4km/h 9.0mph /  14.5km/h 42% 0.00in /  0mm
15:30 51.3 °F /  10.7 °C 29.6 °F /  -1.3 °C 30.17in /  1021.6hPa WNW 3.0mph /  4.8km/h 9.0mph /  14.5km/h 43% 0.00in /  0mm
15:39 51.4 °F /  10.8 °C 30.8 °F /  -0.7 °C 30.16in /  1021.2hPa NW 2.0mph /  3.2km/h 7.0mph /  11.3km/h 45% 0.00in /  0mm
15:45 52.2 °F /  11.2 °C 30.9 °F /  -0.6 °C 30.17in /  1021.6hPa North 1.0mph /  1.6km/h 7.0mph /  11.3km/h 44% 0.00in /  0mm
15:50 53.0 °F /  11.7 °C 31.1 °F /  -0.5 °C 30.17in /  1021.6hPa Calm   6.0mph /  9.7km/h 43% 0.00in /  0mm
15:55 53.4 °F /  11.9 °C 30.9 °F /  -0.6 °C 30.16in /  1021.2hPa NNE 1.0mph /  1.6km/h 5.0mph /  8km/h 42% 0.00in /  0mm
16:04 53.8 °F /  12.1 °C 30.7 °F /  -0.7 °C 30.16in /  1021.2hPa North 2.0mph /  3.2km/h 6.0mph /  9.7km/h 41% 0.00in /  0mm
16:09 53.3 °F /  11.8 °C 29.6 °F /  -1.3 °C 30.16in /  1021.2hPa NNE 2.0mph /  3.2km/h 7.0mph /  11.3km/h 40% 0.00in /  0mm
16:14 52.9 °F /  11.6 °C 30.4 °F /  -0.9 °C 30.16in /  1021.2hPa Calm   7.0mph /  11.3km/h 42% 0.00in /  0mm
16:19 53.3 °F /  11.8 °C 30.2 °F /  -1 °C 30.15in /  1020.9hPa North 1.0mph /  1.6km/h 7.0mph /  11.3km/h 41% 0.00in /  0mm
16:25 53.6 °F /  12 °C 30.5 °F /  -0.8 °C 30.15in /  1020.9hPa Calm   7.0mph /  11.3km/h 41% 0.00in /  0mm
16:34 53.2 °F /  11.8 °C 30.1 °F /  -1.1 °C 30.15in /  1020.9hPa NW 1.0mph /  1.6km/h 7.0mph /  11.3km/h 41% 0.00in /  0mm
16:39 53.2 °F /  11.8 °C 28.9 °F /  -1.7 °C 30.15in /  1020.9hPa NW 2.0mph /  3.2km/h 7.0mph /  11.3km/h 39% 0.00in /  0mm
16:44 53.1 °F /  11.7 °C 30.0 °F /  -1.1 °C 30.15in /  1020.9hPa Calm   7.0mph /  11.3km/h 41% 0.00in /  0mm
16:49 53.6 °F /  12 °C 28.6 °F /  -1.9 °C 30.14in /  1020.5hPa Calm   7.0mph /  11.3km/h 38% 0.00in /  0mm
16:55 53.7 °F /  12.1 °C 31.2 °F /  -0.4 °C 30.14in /  1020.5hPa NNW 1.0mph /  1.6km/h 4.0mph /  6.4km/h 42% 0.00in /  0mm
17:04 54.1 °F /  12.3 °C 29.1 °F /  -1.6 °C 30.14in /  1020.5hPa Calm   8.0mph /  12.9km/h 38% 0.00in /  0mm
17:09 53.9 °F /  12.2 °C 29.5 °F /  -1.4 °C 30.14in /  1020.5hPa Calm   7.0mph /  11.3km/h 39% 0.00in /  0mm
17:14 54.0 °F /  12.2 °C 30.2 °F /  -1 °C 30.14in /  1020.5hPa NNE 2.0mph /  3.2km/h 7.0mph /  11.3km/h 40% 0.00in /  0mm
17:19 53.7 °F /  12.1 °C 28.7 °F /  -1.8 °C 30.14in /  1020.5hPa ENE 1.0mph /  1.6km/h 7.0mph /  11.3km/h 38% 0.00in /  0mm
17:24 53.3 °F /  11.8 °C 27.7 °F /  -2.4 °C 30.13in /  1020.2hPa Calm   6.0mph /  9.7km/h 37% 0.00in /  0mm
17:29 53.0 °F /  11.7 °C 28.7 °F /  -1.8 °C 30.13in /  1020.2hPa Calm   6.0mph /  9.7km/h 39% 0.00in /  0mm
17:34 53.3 °F /  11.8 °C 28.3 °F /  -2.1 °C 30.14in /  1020.5hPa NE 1.0mph /  1.6km/h 7.0mph /  11.3km/h 38% 0.00in /  0mm
17:39 52.8 °F /  11.6 °C 27.9 °F /  -2.3 °C 30.14in /  1020.5hPa Calm   7.0mph /  11.3km/h 38% 0.00in /  0mm
17:44 53.0 °F /  11.7 °C 29.9 °F /  -1.2 °C 30.14in /  1020.5hPa Calm   2.0mph /  3.2km/h 41% 0.00in /  0mm
17:49 53.3 °F /  11.8 °C 29.0 °F /  -1.7 °C 30.14in /  1020.5hPa NE 2.0mph /  3.2km/h 6.0mph /  9.7km/h 39% 0.00in /  0mm
17:54 53.4 °F /  11.9 °C 29.1 °F /  -1.6 °C 30.14in /  1020.5hPa North 1.0mph /  1.6km/h 6.0mph /  9.7km/h 39% 0.00in /  0mm
17:59 52.9 °F /  11.6 °C 28.6 °F /  -1.9 °C 30.13in /  1020.2hPa Calm   5.0mph /  8km/h 39% 0.00in /  0mm
18:04 52.8 °F /  11.6 °C 28.5 °F /  -1.9 °C 30.13in /  1020.2hPa NE 1.0mph /  1.6km/h 5.0mph /  8km/h 39% 0.00in /  0mm
18:09 53.0 °F /  11.7 °C 28.7 °F /  -1.8 °C 30.12in /  1019.9hPa Calm   5.0mph /  8km/h 39% 0.00in /  0mm
18:14 53.0 °F /  11.7 °C 28.7 °F /  -1.8 °C 30.12in /  1019.9hPa Calm   2.0mph /  3.2km/h 39% 0.00in /  0mm
18:19 53.2 °F /  11.8 °C 28.9 °F /  -1.7 °C 30.12in /  1019.9hPa Calm   1.0mph /  1.6km/h 39% 0.00in /  0mm
18:24 52.9 °F /  11.6 °C 28.6 °F /  -1.9 °C 30.12in /  1019.9hPa Calm   2.0mph /  3.2km/h 39% 0.00in /  0mm
18:29 53.3 °F /  11.8 °C 29.0 °F /  -1.7 °C 30.12in /  1019.9hPa Calm   2.0mph /  3.2km/h 39% 0.00in /  0mm
18:34 53.7 °F /  12.1 °C 29.3 °F /  -1.5 °C 30.12in /  1019.9hPa NNE 1.0mph /  1.6km/h 3.0mph /  4.8km/h 39% 0.00in /  0mm
18:39 53.5 °F /  11.9 °C 29.2 °F /  -1.6 °C 30.12in /  1019.9hPa NW 2.0mph /  3.2km/h 4.0mph /  6.4km/h 39% 0.00in /  0mm
18:44 52.7 °F /  11.5 °C 28.4 °F /  -2 °C 30.12in /  1019.9hPa NW 4.0mph /  6.4km/h 6.0mph /  9.7km/h 39% 0.00in /  0mm
18:49 52.1 °F /  11.2 °C 28.5 °F /  -1.9 °C 30.12in /  1019.9hPa Calm   6.0mph /  9.7km/h 40% 0.00in /  0mm
18:55 52.1 °F /  11.2 °C 28.5 °F /  -1.9 °C 30.12in /  1019.9hPa Calm   3.0mph /  4.8km/h 40% 0.00in /  0mm
19:00 52.2 °F /  11.2 °C 29.2 °F /  -1.6 °C 30.11in /  1019.5hPa Calm   1.0mph /  1.6km/h 41% 0.00in /  0mm
19:09 51.5 °F /  10.8 °C 29.2 °F /  -1.6 °C 30.11in /  1019.5hPa Calm     42% 0.00in /  0mm
19:14 51.0 °F /  10.6 °C 28.7 °F /  -1.8 °C 30.11in /  1019.5hPa Calm   1.0mph /  1.6km/h 42% 0.00in /  0mm
19:19 50.2 °F /  10.1 °C 28.6 °F /  -1.9 °C 30.12in /  1019.9hPa Calm   1.0mph /  1.6km/h 43% 0.00in /  0mm
19:24 49.4 °F /  9.7 °C 28.4 °F /  -2 °C 30.11in /  1019.5hPa Calm   4.0mph /  6.4km/h 44% 0.00in /  0mm
19:29 48.5 °F /  9.2 °C 28.7 °F /  -1.8 °C 30.11in /  1019.5hPa Calm   4.0mph /  6.4km/h 46% 0.00in /  0mm
19:34 47.5 °F /  8.6 °C 28.8 °F /  -1.8 °C 30.11in /  1019.5hPa Calm     48% 0.00in /  0mm
19:39 46.6 °F /  8.1 °C 29.0 °F /  -1.7 °C 30.12in /  1019.9hPa Calm     50% 0.00in /  0mm
19:44 45.8 °F /  7.7 °C 28.7 °F /  -1.8 °C 30.11in /  1019.5hPa Calm     51% 0.00in /  0mm
19:49 45.0 °F /  7.2 °C 29.4 °F /  -1.4 °C 30.11in /  1019.5hPa Calm     54% 0.00in /  0mm
19:54 44.3 °F /  6.8 °C 29.2 °F /  -1.6 °C 30.11in /  1019.5hPa Calm     55% 0.00in /  0mm
19:59 43.8 °F /  6.6 °C 29.1 °F /  -1.6 °C 30.11in /  1019.5hPa Calm     56% 0.00in /  0mm
20:04 43.3 °F /  6.3 °C 29.1 °F /  -1.6 °C 30.11in /  1019.5hPa Calm     57% 0.00in /  0mm
20:09 43.0 °F /  6.1 °C 28.8 °F /  -1.8 °C 30.11in /  1019.5hPa Calm     57% 0.00in /  0mm
20:14 42.8 °F /  6 °C 28.6 °F /  -1.9 °C 30.11in /  1019.5hPa Calm     57% 0.00in /  0mm
20:19 42.7 °F /  5.9 °C 29.4 °F /  -1.4 °C 30.11in /  1019.5hPa Calm     59% 0.00in /  0mm
20:24 42.3 °F /  5.7 °C 29.0 °F /  -1.7 °C 30.11in /  1019.5hPa Calm     59% 0.00in /  0mm
20:29 42.0 °F /  5.6 °C 29.5 °F /  -1.4 °C 30.11in /  1019.5hPa Calm     61% 0.00in /  0mm
20:34 41.6 °F /  5.3 °C 28.7 °F /  -1.8 °C 30.11in /  1019.5hPa Calm     60% 0.00in /  0mm
20:39 41.5 °F /  5.3 °C 28.7 °F /  -1.8 °C 30.11in /  1019.5hPa Calm     60% 0.00in /  0mm
20:44 41.6 °F /  5.3 °C 28.7 °F /  -1.8 °C 30.11in /  1019.5hPa Calm     60% 0.00in /  0mm
20:59 41.1 °F /  5.1 °C 28.3 °F /  -2.1 °C 30.10in /  1019.2hPa Calm     60% 0.00in /  0mm
21:04 41.0 °F /  5 °C 28.2 °F /  -2.1 °C 30.10in /  1019.2hPa Calm     60% 0.00in /  0mm
21:09 40.9 °F /  4.9 °C 28.9 °F /  -1.7 °C 30.11in /  1019.5hPa Calm     62% 0.00in /  0mm
21:14 40.2 °F /  4.6 °C 28.2 °F /  -2.1 °C 30.10in /  1019.2hPa Calm     62% 0.00in /  0mm
21:19 39.6 °F /  4.2 °C 27.7 °F /  -2.4 °C 30.10in /  1019.2hPa Calm     62% 0.00in /  0mm
21:24 39.8 °F /  4.3 °C 27.8 °F /  -2.3 °C 30.10in /  1019.2hPa Calm     62% 0.00in /  0mm
21:29 40.7 °F /  4.8 °C 28.7 °F /  -1.8 °C 30.09in /  1018.8hPa Calm     62% 0.00in /  0mm
21:34 40.9 °F /  4.9 °C 28.5 °F /  -1.9 °C 30.09in /  1018.8hPa Calm     61% 0.00in /  0mm
21:39 40.7 °F /  4.8 °C 28.7 °F /  -1.8 °C 30.09in /  1018.8hPa Calm     62% 0.00in /  0mm
21:44 39.7 °F /  4.3 °C 28.1 °F /  -2.2 °C 30.09in /  1018.8hPa Calm     63% 0.00in /  0mm
21:50 38.9 °F /  3.8 °C 27.8 °F /  -2.3 °C 30.09in /  1018.8hPa Calm     64% 0.00in /  0mm
21:59 37.6 °F /  3.1 °C 27.3 °F /  -2.6 °C 30.09in /  1018.8hPa Calm     66% 0.00in /  0mm
22:04 37.8 °F /  3.2 °C 27.5 °F /  -2.5 °C 30.08in /  1018.5hPa Calm     66% 0.00in /  0mm
22:09 38.3 °F /  3.5 °C 27.2 °F /  -2.7 °C 30.08in /  1018.5hPa Calm     64% 0.00in /  0mm
22:14 38.7 °F /  3.7 °C 27.2 °F /  -2.7 °C 30.08in /  1018.5hPa Calm     63% 0.00in /  0mm
22:19 39.0 °F /  3.9 °C 27.9 °F /  -2.3 °C 30.08in /  1018.5hPa Calm     64% 0.00in /  0mm
22:25 39.2 °F /  4 °C 28.0 °F /  -2.2 °C 30.08in /  1018.5hPa Calm     64% 0.00in /  0mm
22:34 38.9 °F /  3.8 °C 27.4 °F /  -2.6 °C 30.08in /  1018.5hPa Calm     63% 0.00in /  0mm
22:39 38.6 °F /  3.7 °C 27.1 °F /  -2.7 °C 30.07in /  1018.2hPa Calm     63% 0.00in /  0mm
22:44 37.8 °F /  3.2 °C 27.5 °F /  -2.5 °C 30.07in /  1018.2hPa Calm     66% 0.00in /  0mm
22:49 37.3 °F /  2.9 °C 27.0 °F /  -2.8 °C 30.07in /  1018.2hPa Calm     66% 0.00in /  0mm
22:54 37.5 °F /  3.1 °C 27.2 °F /  -2.7 °C 30.07in /  1018.2hPa Calm     66% 0.00in /  0mm
22:59 37.8 °F /  3.2 °C 27.1 °F /  -2.7 °C 30.07in /  1018.2hPa Calm     65% 0.00in /  0mm
23:04 38.0 °F /  3.3 °C 28.0 °F /  -2.2 °C 30.07in /  1018.2hPa Calm     67% 0.00in /  0mm
23:09 37.9 °F /  3.3 °C 27.9 °F /  -2.3 °C 30.07in /  1018.2hPa Calm     67% 0.00in /  0mm
23:14 38.1 °F /  3.4 °C 27.8 °F /  -2.3 °C 30.07in /  1018.2hPa Calm     66% 0.00in /  0mm
23:19 38.0 °F /  3.3 °C 27.7 °F /  -2.4 °C 30.07in /  1018.2hPa Calm     66% 0.00in /  0mm
23:25 37.7 °F /  3.2 °C 27.4 °F /  -2.6 °C 30.07in /  1018.2hPa Calm     66% 0.00in /  0mm
23:34 37.1 °F /  2.8 °C 27.2 °F /  -2.7 °C 30.07in /  1018.2hPa Calm     67% 0.00in /  0mm
23:39 36.7 °F /  2.6 °C 27.1 °F /  -2.7 °C 30.07in /  1018.2hPa Calm   1.0mph /  1.6km/h 68% 0.00in /  0mm
23:45 35.7 °F /  2.1 °C 27.2 °F /  -2.7 °C 30.07in /  1018.2hPa Calm   1.0mph /  1.6km/h 71% 0.00in /  0mm
23:54 34.5 °F /  1.4 °C 27.1 °F /  -2.7 °C 30.08in /  1018.5hPa Calm   1.0mph /  1.6km/h 74% 0.00in /  0mm
23:59 34.4 °F /  1.3 °C 27.3 °F /  -2.6 °C 30.08in /  1018.5hPa Calm   1.0mph /  1.6km/h 75% 0.00in /  0mm
Westford Weather
Compliments of Weather Underground

 
 
Current Radar Loop:

Copyright © WestfordWeather.net 2007-2014. All rights reserved.